Time;durP1;ratioP1;P1;durP2;ratioP2;P2;SDS_P1;SDS_P2;PMS_P1;PMS_P2;Temp;Humidity;BMP_temperature;BMP_pressure;BME280_temperature;BME280_humidity;BME280_pressure;Samples;Min_cycle;Max_cycle;Signal;HPM_P1;HPM_P2
2024/04/02 00:03:32;;;;;;;0.43;0.30;;;;;;;;;;10365130;28;20048;-77
2024/04/02 00:08:33;;;;;;;0.27;0.17;;;;;;;;;;10364800;28;20393;-77
2024/04/02 00:13:35;;;;;;;0.20;0.20;;;;;;;;;;10365054;28;20120;-76
2024/04/02 00:18:39;;;;;;;0.20;0.20;;;;;;;;;;10362630;28;20041;-77
2024/04/02 00:23:41;;;;;;;0.95;0.22;;;;;;;;;;10364281;28;20045;-75
2024/04/02 00:28:44;;;;;;;0.47;0.20;;;;;;;;;;10367682;28;20408;-76
2024/04/02 00:33:52;;;;;;;1.80;0.17;;;;;;;;;;10364148;28;20459;-76
2024/04/02 00:38:54;;;;;;;0.28;0.10;;;;;;;;;;10366096;28;20096;-77
2024/04/02 00:43:56;;;;;;;0.25;0.20;;;;;;;;;;10363565;28;20038;-77
2024/04/02 00:48:59;;;;;;;0.60;0.17;;;;;;;;;;10383306;28;20056;-76
2024/04/02 00:54:03;;;;;;;0.77;0.20;;;;;;;;;;10380968;28;20076;-76
2024/04/02 00:59:05;;;;;;;0.15;0.15;;;;;;;;;;10369709;28;20068;-74
2024/04/02 01:04:21;;;;;;;0.13;0.13;;;;;;;;;;10363980;28;20064;-75
2024/04/02 01:09:24;;;;;;;0.20;0.20;;;;;;;;;;10363028;28;20044;-75
2024/04/02 01:14:28;;;;;;;0.13;0.13;;;;;;;;;;10359506;28;20034;-77
2024/04/02 01:19:32;;;;;;;0.20;0.20;;;;;;;;;;10362599;28;20038;-76
2024/04/02 01:24:34;;;;;;;0.28;0.10;;;;;;;;;;10363456;28;20085;-77
2024/04/02 01:29:38;;;;;;;0.30;0.20;;;;;;;;;;10360040;28;20091;-77
2024/04/02 01:34:39;;;;;;;2.03;0.60;;;;;;;;;;10362113;28;20096;-77
2024/04/02 01:39:41;;;;;;;0.55;0.17;;;;;;;;;;10363144;28;20042;-76
2024/04/02 01:44:44;;;;;;;0.43;0.20;;;;;;;;;;10359970;28;20045;-76
2024/04/02 01:49:46;;;;;;;0.33;0.10;;;;;;;;;;10379781;28;20041;-77
2024/04/02 01:54:48;;;;;;;0.03;0.00;;;;;;;;;;10365314;28;20053;-76
2024/04/02 01:59:51;;;;;;;0.40;0.25;;;;;;;;;;10346402;28;20045;-75
2024/04/02 02:04:54;;;;;;;0.20;0.13;;;;;;;;;;10361999;28;20084;-75
2024/04/02 02:09:56;;;;;;;0.40;0.30;;;;;;;;;;10347077;28;20052;-75
2024/04/02 02:15:02;;;;;;;0.30;0.30;;;;;;;;;;10363519;28;20049;-76
2024/04/02 02:20:09;;;;;;;6.53;0.38;;;;;;;;;;10370630;28;20490;-76
2024/04/02 02:25:12;;;;;;;0.65;0.30;;;;;;;;;;10365831;28;20136;-75
2024/04/02 02:30:16;;;;;;;0.40;0.20;;;;;;;;;;10368567;28;20183;-76
2024/04/02 02:35:18;;;;;;;0.40;0.13;;;;;;;;;;10363719;28;20049;-77
2024/04/02 02:40:20;;;;;;;0.15;0.05;;;;;;;;;;10364288;28;20038;-75
2024/04/02 02:45:24;;;;;;;0.38;0.30;;;;;;;;;;10367805;28;20153;-75
2024/04/02 02:50:26;;;;;;;0.32;0.10;;;;;;;;;;10370707;28;20476;-77
2024/04/02 02:55:28;;;;;;;0.30;0.30;;;;;;;;;;10378557;28;20117;-76
2024/04/02 03:00:31;;;;;;;0.50;0.25;;;;;;;;;;10369574;28;20037;-76
2024/04/02 03:05:33;;;;;;;0.38;0.22;;;;;;;;;;10368202;28;20502;-76
2024/04/02 03:10:35;;;;;;;0.15;0.15;;;;;;;;;;10368860;28;20038;-76
2024/04/02 03:15:40;;;;;;;0.30;0.30;;;;;;;;;;10364194;28;20474;-76
2024/04/02 03:20:42;;;;;;;0.20;0.20;;;;;;;;;;10366046;28;20468;-76
2024/04/02 03:25:51;;;;;;;2.15;0.38;;;;;;;;;;10369073;28;20455;-77
2024/04/02 03:31:09;;;;;;;1.20;0.22;;;;;;;;;;10347193;28;20048;-77
2024/04/02 03:36:11;;;;;;;0.30;0.30;;;;;;;;;;10367745;28;20049;-76
2024/04/02 03:41:13;;;;;;;0.30;0.30;;;;;;;;;;10350279;28;20087;-76
2024/04/02 03:46:16;;;;;;;0.63;0.40;;;;;;;;;;10370705;28;20486;-75
2024/04/02 03:51:18;;;;;;;0.10;0.10;;;;;;;;;;10362077;28;20037;-78
2024/04/02 03:56:20;;;;;;;0.20;0.20;;;;;;;;;;10366726;28;20118;-76
2024/04/02 04:01:23;;;;;;;0.38;0.30;;;;;;;;;;10386488;28;20050;-77
2024/04/02 04:06:25;;;;;;;3.22;0.70;;;;;;;;;;10369271;28;20054;-76
2024/04/02 04:11:27;;;;;;;0.82;0.38;;;;;;;;;;10355042;28;20042;-76
2024/04/02 04:16:32;;;;;;;0.75;0.40;;;;;;;;;;10368912;28;20102;-77
2024/04/02 04:21:34;;;;;;;;;;;;;;;;;;10369241;28;20651;-77
2024/04/02 04:26:36;;;;;;;1.58;0.30;;;;;;;;;;10368313;28;19932;-77
2024/04/02 04:31:50;;;;;;;1.95;0.43;;;;;;;;;;10367877;28;20049;-77
2024/04/02 04:36:52;;;;;;;0.32;0.22;;;;;;;;;;10364000;28;20586;-76
2024/04/02 04:41:57;;;;;;;2.42;0.60;;;;;;;;;;10368133;28;20667;-75
2024/04/02 04:47:01;;;;;;;0.40;0.30;;;;;;;;;;10365205;28;20072;-76
2024/04/02 04:52:03;;;;;;;;;;;;;;;;;;10364817;28;20557;-74
2024/04/02 04:57:07;;;;;;;0.60;0.40;;;;;;;;;;10372109;28;20361;-76
2024/04/02 05:02:11;;;;;;;0.47;0.30;;;;;;;;;;10351534;28;20575;-75
2024/04/02 05:07:24;;;;;;;0.73;0.40;;;;;;;;;;10365519;28;20537;-76
2024/04/02 05:12:29;;;;;;;0.60;0.38;;;;;;;;;;10347470;28;20223;-75
2024/04/02 05:17:33;;;;;;;0.57;0.30;;;;;;;;;;10363090;28;20098;-76
2024/04/02 05:22:35;;;;;;;1.27;0.32;;;;;;;;;;10361761;28;20053;-76
2024/04/02 05:27:38;;;;;;;0.57;0.30;;;;;;;;;;10361261;28;20042;-76
2024/04/02 05:32:41;;;;;;;0.20;0.20;;;;;;;;;;10366716;28;20224;-76
2024/04/02 05:37:44;;;;;;;0.88;0.30;;;;;;;;;;10359464;28;20107;-76
2024/04/02 05:42:45;;;;;;;0.95;0.55;;;;;;;;;;10365413;28;20379;-76
2024/04/02 05:47:48;;;;;;;0.00;0.00;;;;;;;;;;10351624;28;20064;-76
2024/04/02 05:52:51;;;;;;;1.23;0.98;;;;;;;;;;10369943;28;20101;-75
2024/04/02 05:57:55;;;;;;;0.85;0.75;;;;;;;;;;10389083;28;20049;-75
2024/04/02 06:03:03;;;;;;;0.70;0.70;;;;;;;;;;10388086;28;20046;-75
2024/04/02 06:08:05;;;;;;;0.10;0.10;;;;;;;;;;10377005;28;20045;-74
2024/04/02 06:13:07;;;;;;;0.65;0.30;;;;;;;;;;10371950;28;20042;-76
2024/04/02 06:18:11;;;;;;;1.08;0.30;;;;;;;;;;10359337;28;20060;-76
2024/04/02 06:23:13;;;;;;;0.43;0.35;;;;;;;;;;10367147;28;20524;-77
2024/04/02 06:28:27;;;;;;;0.30;0.30;;;;;;;;;;10383747;28;20468;-74
2024/04/02 06:33:31;;;;;;;0.95;0.52;;;;;;;;;;10315029;28;20509;-74
2024/04/02 06:38:33;;;;;;;0.20;0.20;;;;;;;;;;10299947;28;20060;-75
2024/04/02 06:43:36;;;;;;;0.30;0.30;;;;;;;;;;10292768;28;20034;-76
2024/04/02 06:48:39;;;;;;;0.35;0.25;;;;;;;;;;10359261;28;20141;-76
2024/04/02 06:53:41;;;;;;;0.40;0.40;;;;;;;;;;10336748;28;20061;-75
2024/04/02 06:58:44;;;;;;;0.20;0.20;;;;;;;;;;10335753;28;20045;-75
2024/04/02 07:03:47;;;;;;;0.30;0.30;;;;;;;;;;10335490;28;20543;-76
2024/04/02 07:08:52;;;;;;;1.00;0.60;;;;;;;;;;10319853;28;20104;-76
2024/04/02 07:13:55;;;;;;;0.57;0.50;;;;;;;;;;10330584;28;20569;-76
2024/04/02 07:19:05;;;;;;;0.38;0.20;;;;;;;;;;10348262;28;20387;-74
2024/04/02 07:24:09;;;;;;;0.82;0.20;;;;;;;;;;10344088;28;20428;-76
2024/04/02 07:29:15;;;;;;;0.50;0.50;;;;;;;;;;10345020;28;20638;-75
2024/04/02 07:34:20;;;;;;;0.68;0.68;;;;;;;;;;10334220;28;20882;-75
2024/04/02 07:39:26;;;;;;;0.50;0.50;;;;;;;;;;10333925;28;20046;-77
2024/04/02 07:44:49;;;;;;;0.20;0.20;;;;;;;;;;10328905;28;20046;-76
2024/04/02 07:49:55;;;;;;;0.50;0.50;;;;;;;;;;10349414;28;20037;-77
2024/04/02 07:55:01;;;;;;;0.85;0.70;;;;;;;;;;10324992;28;20042;-76
2024/04/02 08:00:04;;;;;;;0.55;0.30;;;;;;;;;;10329611;28;20057;-76
2024/04/02 08:05:13;;;;;;;0.50;0.50;;;;;;;;;;10327795;28;20053;-76
2024/04/02 08:10:21;;;;;;;0.45;0.45;;;;;;;;;;10324719;28;20057;-75
2024/04/02 08:15:34;;;;;;;0.70;0.70;;;;;;;;;;10325676;28;20391;-76
2024/04/02 08:20:38;;;;;;;1.33;0.50;;;;;;;;;;10326801;28;20041;-76
2024/04/02 08:25:45;;;;;;;0.63;0.43;;;;;;;;;;10327324;28;20046;-77
2024/04/02 08:31:05;;;;;;;0.28;0.20;;;;;;;;;;10288440;28;20179;-76
2024/04/02 08:36:16;;;;;;;0.22;0.20;;;;;;;;;;10267114;28;20038;-76
2024/04/02 08:41:22;;;;;;;1.50;0.50;;;;;;;;;;10275579;28;20054;-78
2024/04/02 08:46:24;;;;;;;0.98;0.40;;;;;;;;;;10276332;28;20043;-77
2024/04/02 08:51:29;;;;;;;2.88;0.50;;;;;;;;;;10272937;28;20050;-76
2024/04/02 08:56:37;;;;;;;1.15;0.50;;;;;;;;;;10280247;28;20476;-74
2024/04/02 09:01:39;;;;;;;1.20;0.40;;;;;;;;;;10273721;28;20531;-76
2024/04/02 09:06:42;;;;;;;3.00;0.40;;;;;;;;;;10278510;28;20049;-77
2024/04/02 09:11:44;;;;;;;3.33;0.38;;;;;;;;;;10276338;28;20088;-77
2024/04/02 09:16:47;;;;;;;1.13;0.50;;;;;;;;;;10271064;28;20050;-75
2024/04/02 09:21:55;;;;;;;2.13;0.70;;;;;;;;;;10272511;28;20042;-77
2024/04/02 09:26:59;;;;;;;0.90;0.55;;;;;;;;;;10280243;28;20706;-75
2024/04/02 09:32:06;;;;;;;2.15;0.60;;;;;;;;;;10264791;28;20081;-76
2024/04/02 09:37:13;;;;;;;4.70;1.03;;;;;;;;;;10291208;28;20052;-76
2024/04/02 09:42:21;;;;;;;1.73;0.43;;;;;;;;;;10268386;28;20046;-77
2024/04/02 09:47:28;;;;;;;1.67;0.65;;;;;;;;;;10281427;28;20091;-75
2024/04/02 09:52:32;;;;;;;2.67;0.60;;;;;;;;;;10289012;28;20043;-75
2024/04/02 09:57:37;;;;;;;1.40;0.30;;;;;;;;;;10276809;28;20054;-76
2024/04/02 10:02:49;;;;;;;2.58;0.55;;;;;;;;;;10278960;28;20050;-76
2024/04/02 10:07:57;;;;;;;1.38;0.50;;;;;;;;;;10264900;28;20448;-77
2024/04/02 10:13:06;;;;;;;0.73;0.40;;;;;;;;;;10290812;28;20058;-77
2024/04/02 10:18:08;;;;;;;3.42;0.50;;;;;;;;;;10277452;28;20061;-76
2024/04/02 10:23:12;;;;;;;3.70;0.70;;;;;;;;;;10276194;28;20443;-75
2024/04/02 10:28:14;;;;;;;5.32;0.80;;;;;;;;;;10296724;28;20582;-76
2024/04/02 10:33:18;;;;;;;2.08;0.57;;;;;;;;;;10280282;28;20045;-76
2024/04/02 10:38:38;;;;;;;2.50;0.80;;;;;;;;;;10275075;28;20039;-75
2024/04/02 10:43:45;;;;;;;1.35;1.25;;;;;;;;;;10274269;28;20034;-75
2024/04/02 10:48:48;;;;;;;3.25;0.68;;;;;;;;;;10286792;28;20055;-78
2024/04/02 10:53:52;;;;;;;2.83;1.70;;;;;;;;;;10263720;28;20034;-77
2024/04/02 10:58:55;;;;;;;1.35;1.10;;;;;;;;;;10283890;28;20046;-75
2024/04/02 11:03:57;;;;;;;1.27;1.20;;;;;;;;;;10275517;28;20046;-76
2024/04/02 11:09:00;;;;;;;1.00;1.00;;;;;;;;;;10265385;28;20042;-78
2024/04/02 11:14:06;;;;;;;1.25;1.23;;;;;;;;;;10290124;28;20570;-77
2024/04/02 11:19:12;;;;;;;1.48;0.57;;;;;;;;;;10275467;28;20642;-76
2024/04/02 11:29:51;;;;;;;1.67;1.10;;;;;;;;;;10276628;28;20046;-76
2024/04/02 11:34:59;;;;;;;3.53;1.05;;;;;;;;;;10275865;28;20030;-76
2024/04/02 11:40:02;;;;;;;1.60;1.02;;;;;;;;;;10276773;28;20059;-76
2024/04/02 11:45:08;;;;;;;1.33;0.65;;;;;;;;;;10274294;28;20046;-76
2024/04/02 11:50:13;;;;;;;2.03;0.85;;;;;;;;;;10274043;28;20491;-75
2024/04/02 11:55:17;;;;;;;3.53;0.75;;;;;;;;;;10284334;28;20046;-77
2024/04/02 12:01:02;;;;;;;;;;;;;;;;;;;;;
2024/04/02 12:06:06;;;;;;;0.85;0.50;;;;;;;;;;10195427;28;20171;-76
2024/04/02 12:11:08;;;;;;;1.13;0.90;;;;;;;;;;10274733;28;20046;-75
2024/04/02 12:16:13;;;;;;;1.65;0.68;;;;;;;;;;10276617;28;20431;-78
2024/04/02 12:21:20;;;;;;;0.70;0.70;;;;;;;;;;10272589;28;20046;-76
2024/04/02 12:26:21;;;;;;;2.65;0.65;;;;;;;;;;10289778;28;20058;-76
2024/04/02 12:31:23;;;;;;;3.90;1.15;;;;;;;;;;10274082;28;20054;-76
2024/04/02 12:36:45;;;;;;;1.15;0.40;;;;;;;;;;10275488;28;20152;-77
2024/04/02 12:41:54;;;;;;;1.48;0.40;;;;;;;;;;10276863;28;20145;-77
2024/04/02 12:47:02;;;;;;;2.17;0.60;;;;;;;;;;10278381;28;20050;-75
2024/04/02 12:52:10;;;;;;;1.50;0.38;;;;;;;;;;10279003;28;20453;-76
2024/04/02 12:57:14;;;;;;;3.35;0.77;;;;;;;;;;10273331;28;20380;-76
2024/04/02 13:02:16;;;;;;;1.27;0.45;;;;;;;;;;10273343;28;20049;-76
2024/04/02 13:07:19;;;;;;;1.85;0.40;;;;;;;;;;10276763;28;21602;-77
2024/04/02 13:12:26;;;;;;;1.45;1.10;;;;;;;;;;10277418;28;20031;-78
2024/04/02 13:17:30;;;;;;;1.60;0.80;;;;;;;;;;10290770;28;20058;-78
2024/04/02 13:22:42;;;;;;;1.20;0.80;;;;;;;;;;10260792;28;20034;-76
2024/04/02 13:27:44;;;;;;;0.80;0.38;;;;;;;;;;10275055;28;20137;-77
2024/04/02 13:32:50;;;;;;;1.75;0.80;;;;;;;;;;10270697;28;20039;-76
2024/04/02 13:37:58;;;;;;;1.95;0.60;;;;;;;;;;10273024;28;20042;-76
2024/04/02 13:43:04;;;;;;;0.50;0.50;;;;;;;;;;10270694;28;20035;-75
2024/04/02 13:48:26;;;;;;;1.95;0.28;;;;;;;;;;10292170;28;20431;-76
2024/04/02 13:53:32;;;;;;;0.55;0.40;;;;;;;;;;10280368;28;22670;-76
2024/04/02 13:58:37;;;;;;;0.52;0.40;;;;;;;;;;10272900;28;20050;-76
2024/04/02 14:03:47;;;;;;;0.75;0.75;;;;;;;;;;10271550;28;20042;-76
2024/04/02 14:08:50;;;;;;;1.23;0.57;;;;;;;;;;10271067;28;20050;-76
2024/04/02 14:13:52;;;;;;;1.20;0.40;;;;;;;;;;10274935;28;20407;-76
2024/04/02 14:19:02;;;;;;;1.08;0.30;;;;;;;;;;10289589;28;20042;-77
2024/04/02 14:24:06;;;;;;;3.03;0.32;;;;;;;;;;10279454;28;20046;-77
2024/04/02 14:29:09;;;;;;;;;;;;;;;;;;10293976;28;20161;-77
2024/04/02 14:34:16;;;;;;;0.20;0.20;;;;;;;;;;10273387;28;19958;-77
2024/04/02 14:39:19;;;;;;;0.30;0.30;;;;;;;;;;10279475;28;20050;-78
2024/04/02 14:44:21;;;;;;;0.38;0.20;;;;;;;;;;10284981;28;20042;-77
2024/04/02 14:49:23;;;;;;;0.40;0.40;;;;;;;;;;10289543;28;20089;-77
2024/04/02 14:54:40;;;;;;;0.85;0.28;;;;;;;;;;10274556;28;20098;-77
2024/04/02 14:59:42;;;;;;;0.57;0.40;;;;;;;;;;10268601;28;20133;-77
2024/04/02 15:04:45;;;;;;;0.40;0.40;;;;;;;;;;10278983;28;20042;-78
2024/04/02 15:09:49;;;;;;;1.13;0.37;;;;;;;;;;10296114;28;20045;-77
2024/04/02 15:14:51;;;;;;;0.77;0.38;;;;;;;;;;10274963;28;20035;-78
2024/04/02 15:19:53;;;;;;;0.20;0.20;;;;;;;;;;10291934;28;20396;-77
2024/04/02 15:24:56;;;;;;;2.38;0.50;;;;;;;;;;10277487;28;20746;-77
2024/04/02 15:29:58;;;;;;;0.57;0.30;;;;;;;;;;10274542;28;20053;-77
2024/04/02 15:35:00;;;;;;;0.95;0.30;;;;;;;;;;10273035;28;20045;-77
2024/04/02 15:40:10;;;;;;;0.45;0.32;;;;;;;;;;10270139;28;20471;-77
2024/04/02 15:45:13;;;;;;;0.75;0.38;;;;;;;;;;10280001;28;20042;-77
2024/04/02 15:50:18;;;;;;;1.92;0.32;;;;;;;;;;10291806;28;20471;-77
2024/04/02 15:55:21;;;;;;;1.75;0.32;;;;;;;;;;10280679;28;20051;-77
2024/04/02 16:00:23;;;;;;;3.55;0.35;;;;;;;;;;10273476;28;20574;-77
2024/04/02 16:05:28;;;;;;;0.57;0.15;;;;;;;;;;10273265;28;20088;-77
2024/04/02 16:10:31;;;;;;;0.47;0.20;;;;;;;;;;10277605;28;20052;-78
2024/04/02 16:15:33;;;;;;;;;;;;;;;;;;10295067;28;20039;-77
2024/04/02 16:20:35;;;;;;;0.70;0.20;;;;;;;;;;10274021;28;19937;-77
2024/04/02 16:25:39;;;;;;;0.88;0.20;;;;;;;;;;10264714;28;20594;-77
2024/04/02 16:30:41;;;;;;;0.45;0.28;;;;;;;;;;10275890;28;20045;-78
2024/04/02 16:35:43;;;;;;;0.50;0.20;;;;;;;;;;10281243;28;20049;-78
2024/04/02 16:40:46;;;;;;;0.85;0.35;;;;;;;;;;10267618;28;20057;-78
2024/04/02 16:46:00;;;;;;;0.32;0.30;;;;;;;;;;10271934;28;20050;-78
2024/04/02 16:51:02;;;;;;;0.57;0.35;;;;;;;;;;10287993;28;20082;-76
2024/04/02 16:56:07;;;;;;;0.60;0.30;;;;;;;;;;10275619;28;20441;-78
2024/04/02 17:01:10;;;;;;;0.20;0.20;;;;;;;;;;10273843;28;20046;-78
2024/04/02 17:06:12;;;;;;;2.33;0.40;;;;;;;;;;10271100;28;20042;-78
2024/04/02 17:11:15;;;;;;;1.13;0.30;;;;;;;;;;10271026;28;20365;-77
2024/04/02 17:16:17;;;;;;;;;;;;;;;;;;10277951;28;20030;-77
2024/04/02 17:21:19;;;;;;;1.85;0.75;;;;;;;;;;10277166;28;19993;-77
2024/04/02 17:26:23;;;;;;;1.23;0.40;;;;;;;;;;10272372;28;20100;-77
2024/04/02 17:31:25;;;;;;;;;;;;;;;;;;10255945;28;20363;-76
2024/04/02 17:36:27;;;;;;;0.68;0.35;;;;;;;;;;10273571;28;19929;-77
2024/04/02 17:41:30;;;;;;;1.05;0.40;;;;;;;;;;10281484;28;20495;-76
2024/04/02 17:46:32;;;;;;;0.20;0.20;;;;;;;;;;10297370;28;20511;-76
2024/04/02 17:51:34;;;;;;;0.20;0.20;;;;;;;;;;10283296;28;20110;-76
2024/04/02 17:56:38;;;;;;;0.40;0.28;;;;;;;;;;10292306;28;20391;-78
2024/04/02 18:01:39;;;;;;;1.08;0.32;;;;;;;;;;10292613;28;20595;-77
2024/04/02 18:06:44;;;;;;;1.63;0.70;;;;;;;;;;10283376;28;20051;-77
2024/04/02 18:11:48;;;;;;;1.90;0.60;;;;;;;;;;10279745;28;20046;-79
2024/04/02 18:16:53;;;;;;;4.30;0.60;;;;;;;;;;10297509;28;20659;-77
2024/04/02 18:21:54;;;;;;;2.92;0.63;;;;;;;;;;10277479;28;20136;-76
2024/04/02 18:26:58;;;;;;;1.85;0.60;;;;;;;;;;10283415;28;20392;-77
2024/04/02 18:32:04;;;;;;;0.98;0.35;;;;;;;;;;10284211;28;20403;-77
2024/04/02 18:37:06;;;;;;;1.08;0.50;;;;;;;;;;10260034;28;20041;-77
2024/04/02 18:42:10;;;;;;;1.30;0.65;;;;;;;;;;10259110;28;20050;-78
2024/04/02 18:47:13;;;;;;;0.45;0.38;;;;;;;;;;10262071;28;20726;-78
2024/04/02 18:52:15;;;;;;;3.38;0.60;;;;;;;;;;10256658;28;21423;-78
2024/04/02 18:57:18;;;;;;;1.25;0.70;;;;;;;;;;10273339;28;20067;-77
2024/04/02 19:02:20;;;;;;;0.20;0.20;;;;;;;;;;10249783;28;21413;-77
2024/04/02 19:07:24;;;;;;;3.95;1.13;;;;;;;;;;10276498;28;20631;-76
2024/04/02 19:12:28;;;;;;;0.80;0.50;;;;;;;;;;10266645;28;20066;-77
2024/04/02 19:17:32;;;;;;;0.65;0.30;;;;;;;;;;10257772;28;20502;-78
2024/04/02 19:22:33;;;;;;;;;;;;;;;;;;10250518;28;20118;-77
2024/04/02 19:27:37;;;;;;;1.40;0.80;;;;;;;;;;10278466;28;19930;-77
2024/04/02 19:32:40;;;;;;;3.75;0.93;;;;;;;;;;10258242;28;20110;-76
2024/04/02 19:37:42;;;;;;;1.90;0.60;;;;;;;;;;10303749;28;20035;-77
2024/04/02 19:42:45;;;;;;;2.10;0.93;;;;;;;;;;10280642;28;20201;-77
2024/04/02 19:47:48;;;;;;;1.42;0.70;;;;;;;;;;10290892;28;20038;-76
2024/04/02 19:52:51;;;;;;;0.80;0.80;;;;;;;;;;10283377;28;20136;-77
2024/04/02 19:57:54;;;;;;;2.25;0.75;;;;;;;;;;10280570;28;20529;-76
2024/04/02 20:02:57;;;;;;;1.20;0.55;;;;;;;;;;10271345;28;20395;-75
2024/04/02 20:07:59;;;;;;;1.08;0.50;;;;;;;;;;10295398;28;20454;-77
2024/04/02 20:13:04;;;;;;;2.30;0.68;;;;;;;;;;10285474;28;20049;-77
2024/04/02 20:18:08;;;;;;;1.60;0.90;;;;;;;;;;10305114;28;20050;-76
2024/04/02 20:23:10;;;;;;;0.70;0.70;;;;;;;;;;10283574;28;20042;-78
2024/04/02 20:28:14;;;;;;;0.90;0.50;;;;;;;;;;10288208;28;20053;-77
2024/04/02 20:33:16;;;;;;;4.00;0.60;;;;;;;;;;10287390;28;20054;-77
2024/04/02 20:38:18;;;;;;;2.80;0.90;;;;;;;;;;10298891;28;20057;-77
2024/04/02 20:43:23;;;;;;;2.70;0.80;;;;;;;;;;10278682;28;20763;-77
2024/04/02 20:48:26;;;;;;;2.65;0.73;;;;;;;;;;10275599;28;20062;-76
2024/04/02 20:53:28;;;;;;;0.40;0.30;;;;;;;;;;10279951;28;20113;-76
2024/04/02 20:58:32;;;;;;;1.50;0.73;;;;;;;;;;10278545;28;20061;-76
2024/04/02 21:03:35;;;;;;;1.07;0.50;;;;;;;;;;10292877;28;20057;-78
2024/04/02 21:08:37;;;;;;;3.30;0.50;;;;;;;;;;10281343;28;20073;-77
2024/04/02 21:13:41;;;;;;;0.90;0.47;;;;;;;;;;10278510;28;20042;-76
2024/04/02 21:18:44;;;;;;;;;;;;;;;;;;10271576;28;20043;-76
2024/04/02 21:23:47;;;;;;;0.30;0.30;;;;;;;;;;10274104;28;20395;-77
2024/04/02 21:28:50;;;;;;;1.25;0.35;;;;;;;;;;10287938;28;20050;-78
2024/04/02 21:33:55;;;;;;;0.47;0.20;;;;;;;;;;10285618;28;20130;-77
2024/04/02 21:39:01;;;;;;;0.45;0.28;;;;;;;;;;10286115;28;20047;-77
2024/04/02 21:44:06;;;;;;;1.08;0.60;;;;;;;;;;10275674;28;20135;-78
2024/04/02 21:49:08;;;;;;;0.63;0.38;;;;;;;;;;10296482;28;20050;-76
2024/04/02 21:54:11;;;;;;;1.50;0.82;;;;;;;;;;10286970;28;20084;-78
2024/04/02 21:59:14;;;;;;;0.52;0.47;;;;;;;;;;10275204;28;20066;-75
2024/04/02 22:04:16;;;;;;;1.92;0.70;;;;;;;;;;10275914;28;20129;-77
2024/04/02 22:09:18;;;;;;;2.03;0.85;;;;;;;;;;10273013;28;20076;-77
2024/04/02 22:14:31;;;;;;;2.58;0.68;;;;;;;;;;10280739;28;20055;-76
2024/04/02 22:19:33;;;;;;;1.95;0.60;;;;;;;;;;10289539;28;20513;-76
2024/04/02 22:24:34;;;;;;;0.50;0.40;;;;;;;;;;10279733;28;20038;-77
2024/04/02 22:29:38;;;;;;;0.25;0.25;;;;;;;;;;10297751;28;20058;-77
2024/04/02 22:34:40;;;;;;;1.60;0.47;;;;;;;;;;10287133;28;20081;-77
2024/04/02 22:39:42;;;;;;;0.35;0.10;;;;;;;;;;10290735;28;20399;-77
2024/04/02 22:44:47;;;;;;;0.68;0.57;;;;;;;;;;10276027;28;20054;-76
2024/04/02 22:49:50;;;;;;;1.35;0.38;;;;;;;;;;10297353;28;20057;-76
2024/04/02 22:54:54;;;;;;;0.10;0.10;;;;;;;;;;10276914;28;20042;-77
2024/04/02 22:59:58;;;;;;;0.65;0.43;;;;;;;;;;10312164;28;20047;-77
2024/04/02 23:05:00;;;;;;;0.28;0.20;;;;;;;;;;10314763;28;20053;-76
2024/04/02 23:10:02;;;;;;;1.42;0.70;;;;;;;;;;10296106;28;20113;-77
2024/04/02 23:15:07;;;;;;;0.80;0.30;;;;;;;;;;10292595;28;20145;-78
2024/04/02 23:20:09;;;;;;;2.00;0.40;;;;;;;;;;10288353;28;20136;-77
2024/04/02 23:25:11;;;;;;;1.38;0.43;;;;;;;;;;10286132;28;20046;-76
2024/04/02 23:30:15;;;;;;;0.20;0.15;;;;;;;;;;10308273;28;20048;-77
2024/04/02 23:35:16;;;;;;;0.00;0.00;;;;;;;;;;10298707;28;20046;-76
2024/04/02 23:40:19;;;;;;;1.38;0.20;;;;;;;;;;10298406;28;20061;-76
2024/04/02 23:45:23;;;;;;;0.52;0.43;;;;;;;;;;10270267;28;20030;-77
2024/04/02 23:50:25;;;;;;;0.77;0.25;;;;;;;;;;10289321;28;20531;-77
2024/04/02 23:55:28;;;;;;;1.88;0.70;;;;;;;;;;10287250;28;20037;-76
